sensor_id;sensor_type;location;lat;lon;timestamp;P1;durP1;ratioP1;P2;durP2;ratioP2
75552;SDS011;64136;53.118;17.996;2023-05-07T00:00:28;9.20;;;5.90;;
75552;SDS011;64136;53.118;17.996;2023-05-07T00:02:55;7.40;;;4.20;;
75552;SDS011;64136;53.118;17.996;2023-05-07T00:05:22;7.40;;;3.70;;
75552;SDS011;64136;53.118;17.996;2023-05-07T00:07:48;10.10;;;5.00;;
75552;SDS011;64136;53.118;17.996;2023-05-07T00:10:14;6.50;;;3.50;;
75552;SDS011;64136;53.118;17.996;2023-05-07T00:12:40;8.40;;;4.70;;
75552;SDS011;64136;53.118;17.996;2023-05-07T00:15:07;10.00;;;5.10;;
75552;SDS011;64136;53.118;17.996;2023-05-07T00:17:34;13.50;;;8.00;;
75552;SDS011;64136;53.118;17.996;2023-05-07T00:20:00;8.10;;;4.60;;
75552;SDS011;64136;53.118;17.996;2023-05-07T00:22:26;8.30;;;4.40;;
75552;SDS011;64136;53.118;17.996;2023-05-07T00:24:52;8.20;;;4.30;;
75552;SDS011;64136;53.118;17.996;2023-05-07T00:27:19;7.60;;;4.20;;
75552;SDS011;64136;53.118;17.996;2023-05-07T00:29:45;13.00;;;6.20;;
75552;SDS011;64136;53.118;17.996;2023-05-07T00:32:11;5.40;;;3.50;;
75552;SDS011;64136;53.118;17.996;2023-05-07T00:34:37;9.30;;;5.00;;
75552;SDS011;64136;53.118;17.996;2023-05-07T00:37:05;9.80;;;5.50;;
75552;SDS011;64136;53.118;17.996;2023-05-07T00:39:33;9.10;;;5.00;;
75552;SDS011;64136;53.118;17.996;2023-05-07T00:41:59;9.90;;;5.40;;
75552;SDS011;64136;53.118;17.996;2023-05-07T00:44:26;9.90;;;5.40;;
75552;SDS011;64136;53.118;17.996;2023-05-07T00:46:53;13.10;;;6.80;;
75552;SDS011;64136;53.118;17.996;2023-05-07T00:49:20;13.30;;;6.70;;
75552;SDS011;64136;53.118;17.996;2023-05-07T00:51:46;13.20;;;6.70;;
75552;SDS011;64136;53.118;17.996;2023-05-07T00:54:13;14.20;;;7.60;;
75552;SDS011;64136;53.118;17.996;2023-05-07T00:56:39;13.60;;;7.70;;
75552;SDS011;64136;53.118;17.996;2023-05-07T00:59:06;12.80;;;7.70;;
75552;SDS011;64136;53.118;17.996;2023-05-07T01:01:32;15.30;;;8.70;;
75552;SDS011;64136;53.118;17.996;2023-05-07T01:03:59;13.00;;;7.90;;
75552;SDS011;64136;53.118;17.996;2023-05-07T01:06:25;17.20;;;8.60;;
75552;SDS011;64136;53.118;17.996;2023-05-07T01:08:53;17.90;;;8.40;;
75552;SDS011;64136;53.118;17.996;2023-05-07T01:11:23;13.40;;;7.50;;
75552;SDS011;64136;53.118;17.996;2023-05-07T01:13:49;13.50;;;7.30;;
75552;SDS011;64136;53.118;17.996;2023-05-07T01:16:16;13.20;;;7.90;;
75552;SDS011;64136;53.118;17.996;2023-05-07T01:18:43;12.60;;;8.00;;
75552;SDS011;64136;53.118;17.996;2023-05-07T01:21:10;15.30;;;8.50;;
75552;SDS011;64136;53.118;17.996;2023-05-07T01:23:38;11.60;;;7.70;;
75552;SDS011;64136;53.118;17.996;2023-05-07T01:26:04;14.20;;;7.80;;
75552;SDS011;64136;53.118;17.996;2023-05-07T01:28:31;13.70;;;7.20;;
75552;SDS011;64136;53.118;17.996;2023-05-07T01:31:02;7.00;;;4.50;;
75552;SDS011;64136;53.118;17.996;2023-05-07T01:33:31;11.30;;;5.90;;
75552;SDS011;64136;53.118;17.996;2023-05-07T01:36:00;48.60;;;22.50;;
75552;SDS011;64136;53.118;17.996;2023-05-07T01:38:29;22.20;;;9.90;;
75552;SDS011;64136;53.118;17.996;2023-05-07T01:40:56;16.00;;;7.70;;
75552;SDS011;64136;53.118;17.996;2023-05-07T01:43:23;18.20;;;8.40;;
75552;SDS011;64136;53.118;17.996;2023-05-07T01:45:50;16.70;;;7.90;;
75552;SDS011;64136;53.118;17.996;2023-05-07T01:48:18;13.70;;;7.40;;
75552;SDS011;64136;53.118;17.996;2023-05-07T01:50:45;12.10;;;6.50;;
75552;SDS011;64136;53.118;17.996;2023-05-07T01:53:12;14.40;;;7.60;;
75552;SDS011;64136;53.118;17.996;2023-05-07T01:55:38;11.10;;;6.40;;
75552;SDS011;64136;53.118;17.996;2023-05-07T01:58:06;15.70;;;8.00;;
75552;SDS011;64136;53.118;17.996;2023-05-07T02:00:32;21.30;;;10.70;;
75552;SDS011;64136;53.118;17.996;2023-05-07T02:02:58;10.00;;;5.30;;
75552;SDS011;64136;53.118;17.996;2023-05-07T02:05:31;9.10;;;5.60;;
75552;SDS011;64136;53.118;17.996;2023-05-07T02:08:02;12.70;;;6.70;;
75552;SDS011;64136;53.118;17.996;2023-05-07T02:10:30;12.30;;;6.10;;
75552;SDS011;64136;53.118;17.996;2023-05-07T02:12:56;13.80;;;7.50;;
75552;SDS011;64136;53.118;17.996;2023-05-07T02:15:22;11.90;;;5.90;;
75552;SDS011;64136;53.118;17.996;2023-05-07T02:20:29;13.30;;;6.50;;
75552;SDS011;64136;53.118;17.996;2023-05-07T02:22:56;13.00;;;7.30;;
75552;SDS011;64136;53.118;17.996;2023-05-07T02:25:22;10.80;;;5.90;;
75552;SDS011;64136;53.118;17.996;2023-05-07T02:27:48;10.30;;;5.20;;
75552;SDS011;64136;53.118;17.996;2023-05-07T02:30:15;10.80;;;6.00;;
75552;SDS011;64136;53.118;17.996;2023-05-07T02:32:42;12.60;;;6.60;;
75552;SDS011;64136;53.118;17.996;2023-05-07T02:35:09;11.10;;;6.20;;
75552;SDS011;64136;53.118;17.996;2023-05-07T02:37:35;12.00;;;5.70;;
75552;SDS011;64136;53.118;17.996;2023-05-07T02:40:02;10.10;;;6.40;;
75552;SDS011;64136;53.118;17.996;2023-05-07T02:42:30;11.60;;;6.20;;
75552;SDS011;64136;53.118;17.996;2023-05-07T02:44:57;11.40;;;6.70;;
75552;SDS011;64136;53.118;17.996;2023-05-07T02:47:24;10.60;;;6.30;;
75552;SDS011;64136;53.118;17.996;2023-05-07T02:49:56;9.90;;;5.60;;
75552;SDS011;64136;53.118;17.996;2023-05-07T02:52:22;12.00;;;6.70;;
75552;SDS011;64136;53.118;17.996;2023-05-07T02:54:48;9.00;;;5.80;;
75552;SDS011;64136;53.118;17.996;2023-05-07T02:57:15;10.40;;;5.30;;
75552;SDS011;64136;53.118;17.996;2023-05-07T02:59:42;12.00;;;6.20;;
75552;SDS011;64136;53.118;17.996;2023-05-07T03:02:08;9.90;;;5.60;;
75552;SDS011;64136;53.118;17.996;2023-05-07T03:04:34;11.20;;;6.30;;
75552;SDS011;64136;53.118;17.996;2023-05-07T03:07:01;15.20;;;8.50;;
75552;SDS011;64136;53.118;17.996;2023-05-07T03:09:27;14.80;;;9.20;;
75552;SDS011;64136;53.118;17.996;2023-05-07T03:11:54;8.90;;;4.30;;
75552;SDS011;64136;53.118;17.996;2023-05-07T03:14:20;9.80;;;5.60;;
75552;SDS011;64136;53.118;17.996;2023-05-07T03:16:46;8.50;;;5.20;;
75552;SDS011;64136;53.118;17.996;2023-05-07T03:19:13;8.50;;;5.10;;
75552;SDS011;64136;53.118;17.996;2023-05-07T03:21:39;11.30;;;5.80;;
75552;SDS011;64136;53.118;17.996;2023-05-07T03:24:06;9.40;;;5.70;;
75552;SDS011;64136;53.118;17.996;2023-05-07T03:26:32;8.50;;;4.60;;
75552;SDS011;64136;53.118;17.996;2023-05-07T03:28:58;11.30;;;6.20;;
75552;SDS011;64136;53.118;17.996;2023-05-07T03:31:24;12.10;;;6.60;;
75552;SDS011;64136;53.118;17.996;2023-05-07T03:33:56;14.30;;;8.00;;
75552;SDS011;64136;53.118;17.996;2023-05-07T03:36:23;8.20;;;4.20;;
75552;SDS011;64136;53.118;17.996;2023-05-07T03:38:52;9.70;;;5.40;;
75552;SDS011;64136;53.118;17.996;2023-05-07T03:41:20;13.90;;;8.00;;
75552;SDS011;64136;53.118;17.996;2023-05-07T03:43:47;11.00;;;6.50;;
75552;SDS011;64136;53.118;17.996;2023-05-07T03:46:13;16.50;;;9.40;;
75552;SDS011;64136;53.118;17.996;2023-05-07T03:48:40;17.30;;;8.00;;
75552;SDS011;64136;53.118;17.996;2023-05-07T03:51:06;13.90;;;7.30;;
75552;SDS011;64136;53.118;17.996;2023-05-07T03:53:33;8.00;;;4.80;;
75552;SDS011;64136;53.118;17.996;2023-05-07T03:55:59;12.90;;;6.20;;
75552;SDS011;64136;53.118;17.996;2023-05-07T03:58:26;12.20;;;6.90;;
75552;SDS011;64136;53.118;17.996;2023-05-07T04:00:53;9.90;;;5.40;;
75552;SDS011;64136;53.118;17.996;2023-05-07T04:03:22;12.50;;;6.80;;
75552;SDS011;64136;53.118;17.996;2023-05-07T04:05:49;11.60;;;6.60;;
75552;SDS011;64136;53.118;17.996;2023-05-07T04:08:15;10.90;;;6.00;;
75552;SDS011;64136;53.118;17.996;2023-05-07T04:10:45;8.60;;;5.40;;
75552;SDS011;64136;53.118;17.996;2023-05-07T04:13:12;8.40;;;4.60;;
75552;SDS011;64136;53.118;17.996;2023-05-07T04:15:39;14.00;;;6.30;;
75552;SDS011;64136;53.118;17.996;2023-05-07T04:18:08;12.60;;;6.30;;
75552;SDS011;64136;53.118;17.996;2023-05-07T04:20:34;13.90;;;7.40;;
75552;SDS011;64136;53.118;17.996;2023-05-07T04:23:03;17.30;;;9.30;;
75552;SDS011;64136;53.118;17.996;2023-05-07T04:25:29;12.40;;;6.80;;
75552;SDS011;64136;53.118;17.996;2023-05-07T04:28:02;14.20;;;8.10;;
75552;SDS011;64136;53.118;17.996;2023-05-07T04:30:28;9.80;;;6.00;;
75552;SDS011;64136;53.118;17.996;2023-05-07T04:32:54;15.20;;;7.90;;
75552;SDS011;64136;53.118;17.996;2023-05-07T04:40:15;15.90;;;7.90;;
75552;SDS011;64136;53.118;17.996;2023-05-07T04:42:42;11.90;;;6.20;;
75552;SDS011;64136;53.118;17.996;2023-05-07T04:45:09;18.60;;;9.30;;
75552;SDS011;64136;53.118;17.996;2023-05-07T04:47:37;12.20;;;7.20;;
75552;SDS011;64136;53.118;17.996;2023-05-07T04:50:05;9.40;;;5.50;;
75552;SDS011;64136;53.118;17.996;2023-05-07T04:52:33;13.50;;;8.90;;
75552;SDS011;64136;53.118;17.996;2023-05-07T04:55:00;10.10;;;5.30;;
75552;SDS011;64136;53.118;17.996;2023-05-07T04:57:27;10.40;;;6.00;;
75552;SDS011;64136;53.118;17.996;2023-05-07T04:59:53;13.90;;;8.10;;
75552;SDS011;64136;53.118;17.996;2023-05-07T05:02:20;13.90;;;7.30;;
75552;SDS011;64136;53.118;17.996;2023-05-07T05:04:46;15.10;;;9.10;;
75552;SDS011;64136;53.118;17.996;2023-05-07T05:07:13;11.20;;;6.20;;
75552;SDS011;64136;53.118;17.996;2023-05-07T05:09:39;14.60;;;8.90;;
75552;SDS011;64136;53.118;17.996;2023-05-07T05:12:06;12.00;;;5.40;;
75552;SDS011;64136;53.118;17.996;2023-05-07T05:14:34;12.90;;;7.50;;
75552;SDS011;64136;53.118;17.996;2023-05-07T05:17:01;14.00;;;8.00;;
75552;SDS011;64136;53.118;17.996;2023-05-07T05:19:27;6.10;;;3.80;;
75552;SDS011;64136;53.118;17.996;2023-05-07T05:21:53;8.50;;;5.00;;
75552;SDS011;64136;53.118;17.996;2023-05-07T05:24:20;13.50;;;6.40;;
75552;SDS011;64136;53.118;17.996;2023-05-07T05:26:46;8.30;;;6.20;;
75552;SDS011;64136;53.118;17.996;2023-05-07T05:29:12;14.00;;;8.00;;
75552;SDS011;64136;53.118;17.996;2023-05-07T05:31:40;10.60;;;5.80;;
75552;SDS011;64136;53.118;17.996;2023-05-07T05:34:07;12.10;;;6.60;;
75552;SDS011;64136;53.118;17.996;2023-05-07T05:36:34;10.70;;;6.90;;
75552;SDS011;64136;53.118;17.996;2023-05-07T05:39:01;10.80;;;4.90;;
75552;SDS011;64136;53.118;17.996;2023-05-07T05:41:28;12.80;;;7.50;;
75552;SDS011;64136;53.118;17.996;2023-05-07T05:43:55;13.20;;;7.30;;
75552;SDS011;64136;53.118;17.996;2023-05-07T05:46:22;11.60;;;7.60;;
75552;SDS011;64136;53.118;17.996;2023-05-07T05:51:16;7.20;;;4.40;;
75552;SDS011;64136;53.118;17.996;2023-05-07T05:53:42;16.70;;;8.10;;
75552;SDS011;64136;53.118;17.996;2023-05-07T05:56:09;7.90;;;4.60;;
75552;SDS011;64136;53.118;17.996;2023-05-07T05:58:35;11.60;;;6.40;;
75552;SDS011;64136;53.118;17.996;2023-05-07T06:01:04;13.60;;;7.50;;
75552;SDS011;64136;53.118;17.996;2023-05-07T06:03:31;8.50;;;4.80;;
75552;SDS011;64136;53.118;17.996;2023-05-07T06:05:59;8.90;;;4.90;;
75552;SDS011;64136;53.118;17.996;2023-05-07T06:08:29;10.20;;;6.50;;
75552;SDS011;64136;53.118;17.996;2023-05-07T06:10:56;10.30;;;5.60;;
75552;SDS011;64136;53.118;17.996;2023-05-07T06:13:23;16.40;;;8.70;;
75552;SDS011;64136;53.118;17.996;2023-05-07T06:15:50;11.60;;;7.60;;
75552;SDS011;64136;53.118;17.996;2023-05-07T06:18:16;10.60;;;5.60;;
75552;SDS011;64136;53.118;17.996;2023-05-07T06:20:42;7.20;;;4.50;;
75552;SDS011;64136;53.118;17.996;2023-05-07T06:23:13;9.00;;;5.40;;
75552;SDS011;64136;53.118;17.996;2023-05-07T06:25:40;11.30;;;5.80;;
75552;SDS011;64136;53.118;17.996;2023-05-07T06:28:06;8.70;;;6.00;;
75552;SDS011;64136;53.118;17.996;2023-05-07T06:30:35;7.70;;;5.10;;
75552;SDS011;64136;53.118;17.996;2023-05-07T06:33:02;10.30;;;4.80;;
75552;SDS011;64136;53.118;17.996;2023-05-07T06:35:28;7.20;;;3.30;;
75552;SDS011;64136;53.118;17.996;2023-05-07T06:37:55;8.80;;;5.50;;
75552;SDS011;64136;53.118;17.996;2023-05-07T06:40:24;7.00;;;4.20;;
75552;SDS011;64136;53.118;17.996;2023-05-07T06:42:51;8.10;;;4.70;;
75552;SDS011;64136;53.118;17.996;2023-05-07T06:45:23;8.10;;;4.30;;
75552;SDS011;64136;53.118;17.996;2023-05-07T06:47:52;6.90;;;3.90;;
75552;SDS011;64136;53.118;17.996;2023-05-07T06:50:19;7.50;;;4.20;;
75552;SDS011;64136;53.118;17.996;2023-05-07T06:52:45;9.50;;;4.70;;
75552;SDS011;64136;53.118;17.996;2023-05-07T06:55:12;5.50;;;3.40;;
75552;SDS011;64136;53.118;17.996;2023-05-07T06:57:38;5.30;;;2.80;;
75552;SDS011;64136;53.118;17.996;2023-05-07T07:00:05;6.50;;;4.50;;
75552;SDS011;64136;53.118;17.996;2023-05-07T07:02:41;7.00;;;3.70;;
75552;SDS011;64136;53.118;17.996;2023-05-07T07:05:08;9.20;;;4.50;;
75552;SDS011;64136;53.118;17.996;2023-05-07T07:07:35;7.10;;;4.10;;
75552;SDS011;64136;53.118;17.996;2023-05-07T07:10:01;6.10;;;4.00;;
75552;SDS011;64136;53.118;17.996;2023-05-07T07:12:30;6.40;;;4.00;;
75552;SDS011;64136;53.118;17.996;2023-05-07T07:14:56;9.10;;;5.40;;
75552;SDS011;64136;53.118;17.996;2023-05-07T07:17:23;7.30;;;4.10;;
75552;SDS011;64136;53.118;17.996;2023-05-07T07:19:49;7.90;;;5.00;;
75552;SDS011;64136;53.118;17.996;2023-05-07T07:22:16;5.30;;;3.30;;
75552;SDS011;64136;53.118;17.996;2023-05-07T07:24:46;8.20;;;4.60;;
75552;SDS011;64136;53.118;17.996;2023-05-07T07:27:13;7.20;;;4.90;;
75552;SDS011;64136;53.118;17.996;2023-05-07T07:29:39;4.70;;;2.90;;
75552;SDS011;64136;53.118;17.996;2023-05-07T07:32:05;8.10;;;3.80;;
75552;SDS011;64136;53.118;17.996;2023-05-07T07:34:32;8.40;;;4.40;;
75552;SDS011;64136;53.118;17.996;2023-05-07T07:39:31;7.80;;;4.90;;
75552;SDS011;64136;53.118;17.996;2023-05-07T07:41:59;11.20;;;5.30;;
75552;SDS011;64136;53.118;17.996;2023-05-07T07:44:27;10.10;;;5.50;;
75552;SDS011;64136;53.118;17.996;2023-05-07T07:46:57;4.80;;;2.90;;
75552;SDS011;64136;53.118;17.996;2023-05-07T07:49:24;5.70;;;3.60;;
75552;SDS011;64136;53.118;17.996;2023-05-07T07:51:51;6.10;;;3.60;;
75552;SDS011;64136;53.118;17.996;2023-05-07T07:54:17;6.10;;;4.00;;
75552;SDS011;64136;53.118;17.996;2023-05-07T07:56:44;5.60;;;3.60;;
75552;SDS011;64136;53.118;17.996;2023-05-07T07:59:16;5.30;;;3.60;;
75552;SDS011;64136;53.118;17.996;2023-05-07T08:01:45;5.20;;;3.60;;
75552;SDS011;64136;53.118;17.996;2023-05-07T08:04:11;4.60;;;3.30;;
75552;SDS011;64136;53.118;17.996;2023-05-07T08:06:39;5.80;;;3.60;;
75552;SDS011;64136;53.118;17.996;2023-05-07T08:09:06;6.50;;;2.30;;
75552;SDS011;64136;53.118;17.996;2023-05-07T08:11:33;5.50;;;2.50;;
75552;SDS011;64136;53.118;17.996;2023-05-07T08:13:59;3.90;;;2.70;;
75552;SDS011;64136;53.118;17.996;2023-05-07T08:16:26;4.60;;;2.60;;
75552;SDS011;64136;53.118;17.996;2023-05-07T08:18:53;4.00;;;2.30;;
75552;SDS011;64136;53.118;17.996;2023-05-07T08:21:19;3.30;;;1.80;;
75552;SDS011;64136;53.118;17.996;2023-05-07T08:23:46;4.30;;;2.30;;
75552;SDS011;64136;53.118;17.996;2023-05-07T08:26:12;4.80;;;2.20;;
75552;SDS011;64136;53.118;17.996;2023-05-07T08:28:38;3.40;;;2.30;;
75552;SDS011;64136;53.118;17.996;2023-05-07T08:31:05;4.50;;;2.30;;
75552;SDS011;64136;53.118;17.996;2023-05-07T08:33:34;3.90;;;1.70;;
75552;SDS011;64136;53.118;17.996;2023-05-07T08:36:01;3.50;;;2.00;;
75552;SDS011;64136;53.118;17.996;2023-05-07T08:38:27;2.50;;;1.70;;
75552;SDS011;64136;53.118;17.996;2023-05-07T08:40:53;2.70;;;1.80;;
75552;SDS011;64136;53.118;17.996;2023-05-07T08:43:20;5.80;;;2.40;;
75552;SDS011;64136;53.118;17.996;2023-05-07T08:45:49;2.60;;;1.80;;
75552;SDS011;64136;53.118;17.996;2023-05-07T08:48:19;4.20;;;2.50;;
75552;SDS011;64136;53.118;17.996;2023-05-07T08:50:57;3.50;;;2.20;;
75552;SDS011;64136;53.118;17.996;2023-05-07T08:53:25;2.80;;;1.90;;
75552;SDS011;64136;53.118;17.996;2023-05-07T08:55:51;4.30;;;1.60;;
75552;SDS011;64136;53.118;17.996;2023-05-07T08:58:19;3.50;;;1.90;;
75552;SDS011;64136;53.118;17.996;2023-05-07T09:00:45;2.40;;;1.80;;
75552;SDS011;64136;53.118;17.996;2023-05-07T09:03:13;3.90;;;1.90;;
75552;SDS011;64136;53.118;17.996;2023-05-07T09:05:41;3.30;;;2.20;;
75552;SDS011;64136;53.118;17.996;2023-05-07T09:08:14;2.50;;;2.00;;
75552;SDS011;64136;53.118;17.996;2023-05-07T09:10:41;3.40;;;2.20;;
75552;SDS011;64136;53.118;17.996;2023-05-07T09:13:08;3.00;;;2.00;;
75552;SDS011;64136;53.118;17.996;2023-05-07T09:15:36;2.40;;;1.30;;
75552;SDS011;64136;53.118;17.996;2023-05-07T09:18:03;3.70;;;1.90;;
75552;SDS011;64136;53.118;17.996;2023-05-07T09:20:32;4.50;;;1.40;;
75552;SDS011;64136;53.118;17.996;2023-05-07T09:22:59;3.30;;;2.20;;
75552;SDS011;64136;53.118;17.996;2023-05-07T09:25:29;2.70;;;1.80;;
75552;SDS011;64136;53.118;17.996;2023-05-07T09:27:58;3.90;;;2.20;;
75552;SDS011;64136;53.118;17.996;2023-05-07T09:30:29;2.20;;;1.40;;
75552;SDS011;64136;53.118;17.996;2023-05-07T09:32:58;3.30;;;1.30;;
75552;SDS011;64136;53.118;17.996;2023-05-07T09:38:00;2.70;;;1.70;;
75552;SDS011;64136;53.118;17.996;2023-05-07T09:40:28;2.20;;;1.50;;
75552;SDS011;64136;53.118;17.996;2023-05-07T09:43:08;1.60;;;1.30;;
75552;SDS011;64136;53.118;17.996;2023-05-07T09:45:44;2.40;;;1.40;;
75552;SDS011;64136;53.118;17.996;2023-05-07T09:50:45;3.60;;;2.50;;
75552;SDS011;64136;53.118;17.996;2023-05-07T09:53:16;1.60;;;1.40;;
75552;SDS011;64136;53.118;17.996;2023-05-07T09:55:43;3.90;;;1.60;;
75552;SDS011;64136;53.118;17.996;2023-05-07T09:58:12;2.40;;;1.80;;
75552;SDS011;64136;53.118;17.996;2023-05-07T10:00:39;3.60;;;1.90;;
75552;SDS011;64136;53.118;17.996;2023-05-07T10:03:08;3.60;;;2.00;;
75552;SDS011;64136;53.118;17.996;2023-05-07T10:05:41;3.70;;;2.60;;
75552;SDS011;64136;53.118;17.996;2023-05-07T10:08:10;1.90;;;1.60;;
75552;SDS011;64136;53.118;17.996;2023-05-07T10:10:36;3.60;;;1.80;;
75552;SDS011;64136;53.118;17.996;2023-05-07T10:13:04;4.00;;;2.30;;
75552;SDS011;64136;53.118;17.996;2023-05-07T10:15:37;3.50;;;2.20;;
75552;SDS011;64136;53.118;17.996;2023-05-07T10:18:05;3.40;;;1.90;;
75552;SDS011;64136;53.118;17.996;2023-05-07T10:20:33;2.50;;;1.70;;
75552;SDS011;64136;53.118;17.996;2023-05-07T10:23:01;4.10;;;1.90;;
75552;SDS011;64136;53.118;17.996;2023-05-07T10:25:34;2.20;;;1.80;;
75552;SDS011;64136;53.118;17.996;2023-05-07T10:28:07;4.50;;;2.40;;
75552;SDS011;64136;53.118;17.996;2023-05-07T10:33:35;3.60;;;2.30;;
75552;SDS011;64136;53.118;17.996;2023-05-07T10:36:03;2.20;;;1.70;;
75552;SDS011;64136;53.118;17.996;2023-05-07T10:38:32;2.30;;;1.60;;
75552;SDS011;64136;53.118;17.996;2023-05-07T10:41:00;3.30;;;2.00;;
75552;SDS011;64136;53.118;17.996;2023-05-07T10:43:38;2.50;;;2.20;;
75552;SDS011;64136;53.118;17.996;2023-05-07T10:46:14;4.30;;;2.40;;
75552;SDS011;64136;53.118;17.996;2023-05-07T10:51:38;2.90;;;1.90;;
75552;SDS011;64136;53.118;17.996;2023-05-07T10:56:56;3.20;;;2.10;;
75552;SDS011;64136;53.118;17.996;2023-05-07T10:59:38;5.30;;;2.30;;
75552;SDS011;64136;53.118;17.996;2023-05-07T11:02:15;2.10;;;1.60;;
75552;SDS011;64136;53.118;17.996;2023-05-07T11:05:18;2.50;;;2.00;;
75552;SDS011;64136;53.118;17.996;2023-05-07T11:07:53;3.20;;;1.90;;
75552;SDS011;64136;53.118;17.996;2023-05-07T11:13:45;4.10;;;1.90;;
75552;SDS011;64136;53.118;17.996;2023-05-07T11:16:23;3.30;;;2.10;;
75552;SDS011;64136;53.118;17.996;2023-05-07T11:18:56;2.30;;;1.70;;
75552;SDS011;64136;53.118;17.996;2023-05-07T11:24:07;1.90;;;1.60;;
75552;SDS011;64136;53.118;17.996;2023-05-07T11:26:44;2.50;;;1.60;;
75552;SDS011;64136;53.118;17.996;2023-05-07T11:29:20;3.30;;;2.10;;
75552;SDS011;64136;53.118;17.996;2023-05-07T11:31:49;2.80;;;2.00;;
75552;SDS011;64136;53.118;17.996;2023-05-07T11:34:24;3.10;;;2.10;;
75552;SDS011;64136;53.118;17.996;2023-05-07T11:36:52;3.60;;;2.00;;
75552;SDS011;64136;53.118;17.996;2023-05-07T11:39:24;3.60;;;1.90;;
75552;SDS011;64136;53.118;17.996;2023-05-07T11:41:51;5.40;;;2.00;;
75552;SDS011;64136;53.118;17.996;2023-05-07T11:44:17;3.90;;;1.60;;
75552;SDS011;64136;53.118;17.996;2023-05-07T11:46:43;2.90;;;2.00;;
75552;SDS011;64136;53.118;17.996;2023-05-07T11:51:37;2.80;;;1.90;;
75552;SDS011;64136;53.118;17.996;2023-05-07T11:56:34;2.70;;;1.60;;
75552;SDS011;64136;53.118;17.996;2023-05-07T11:59:01;2.60;;;1.40;;
75552;SDS011;64136;53.118;17.996;2023-05-07T12:01:27;2.50;;;2.10;;
75552;SDS011;64136;53.118;17.996;2023-05-07T12:03:54;2.70;;;1.90;;
75552;SDS011;64136;53.118;17.996;2023-05-07T12:06:20;3.30;;;1.70;;
75552;SDS011;64136;53.118;17.996;2023-05-07T12:08:46;2.80;;;1.70;;
75552;SDS011;64136;53.118;17.996;2023-05-07T12:11:14;2.30;;;1.90;;
75552;SDS011;64136;53.118;17.996;2023-05-07T12:13:43;4.20;;;1.90;;
75552;SDS011;64136;53.118;17.996;2023-05-07T12:16:10;1.90;;;1.00;;
75552;SDS011;64136;53.118;17.996;2023-05-07T12:21:04;3.50;;;1.70;;
75552;SDS011;64136;53.118;17.996;2023-05-07T12:23:31;4.40;;;1.80;;
75552;SDS011;64136;53.118;17.996;2023-05-07T12:25:57;2.20;;;1.80;;
75552;SDS011;64136;53.118;17.996;2023-05-07T12:28:25;2.40;;;1.90;;
75552;SDS011;64136;53.118;17.996;2023-05-07T12:30:51;2.40;;;2.20;;
75552;SDS011;64136;53.118;17.996;2023-05-07T12:33:19;2.70;;;2.30;;
75552;SDS011;64136;53.118;17.996;2023-05-07T12:35:53;3.80;;;2.00;;
75552;SDS011;64136;53.118;17.996;2023-05-07T12:38:21;2.30;;;2.00;;
75552;SDS011;64136;53.118;17.996;2023-05-07T12:40:49;2.30;;;1.50;;
75552;SDS011;64136;53.118;17.996;2023-05-07T12:45:56;3.60;;;1.90;;
75552;SDS011;64136;53.118;17.996;2023-05-07T12:48:25;2.10;;;1.50;;
75552;SDS011;64136;53.118;17.996;2023-05-07T12:50:53;3.70;;;1.90;;
75552;SDS011;64136;53.118;17.996;2023-05-07T12:53:21;1.80;;;1.30;;
75552;SDS011;64136;53.118;17.996;2023-05-07T12:55:50;1.50;;;1.30;;
75552;SDS011;64136;53.118;17.996;2023-05-07T12:58:19;3.10;;;1.90;;
75552;SDS011;64136;53.118;17.996;2023-05-07T13:00:49;1.60;;;1.40;;
75552;SDS011;64136;53.118;17.996;2023-05-07T13:03:22;4.10;;;1.40;;
75552;SDS011;64136;53.118;17.996;2023-05-07T13:05:51;3.40;;;1.70;;
75552;SDS011;64136;53.118;17.996;2023-05-07T13:10:51;2.10;;;1.60;;
75552;SDS011;64136;53.118;17.996;2023-05-07T13:15:46;2.90;;;1.40;;
75552;SDS011;64136;53.118;17.996;2023-05-07T13:18:13;2.00;;;1.50;;
75552;SDS011;64136;53.118;17.996;2023-05-07T13:20:40;2.50;;;1.90;;
75552;SDS011;64136;53.118;17.996;2023-05-07T13:23:06;1.50;;;1.30;;
75552;SDS011;64136;53.118;17.996;2023-05-07T13:25:32;1.70;;;1.50;;
75552;SDS011;64136;53.118;17.996;2023-05-07T13:27:59;2.10;;;1.40;;
75552;SDS011;64136;53.118;17.996;2023-05-07T13:30:25;2.30;;;1.80;;
75552;SDS011;64136;53.118;17.996;2023-05-07T13:32:53;1.90;;;1.40;;
75552;SDS011;64136;53.118;17.996;2023-05-07T13:35:21;2.20;;;2.00;;
75552;SDS011;64136;53.118;17.996;2023-05-07T13:37:47;2.30;;;1.50;;
75552;SDS011;64136;53.118;17.996;2023-05-07T13:40:15;2.20;;;1.50;;
75552;SDS011;64136;53.118;17.996;2023-05-07T13:42:41;2.20;;;1.60;;
75552;SDS011;64136;53.118;17.996;2023-05-07T13:45:07;2.50;;;1.80;;
75552;SDS011;64136;53.118;17.996;2023-05-07T13:47:34;2.20;;;1.90;;
75552;SDS011;64136;53.118;17.996;2023-05-07T13:50:00;2.40;;;1.70;;
75552;SDS011;64136;53.118;17.996;2023-05-07T13:52:27;1.90;;;1.70;;
75552;SDS011;64136;53.118;17.996;2023-05-07T13:54:53;1.90;;;1.70;;
75552;SDS011;64136;53.118;17.996;2023-05-07T13:57:21;2.70;;;1.30;;
75552;SDS011;64136;53.118;17.996;2023-05-07T13:59:47;1.40;;;1.30;;
75552;SDS011;64136;53.118;17.996;2023-05-07T14:02:13;2.20;;;1.60;;
75552;SDS011;64136;53.118;17.996;2023-05-07T14:04:39;1.70;;;1.40;;
75552;SDS011;64136;53.118;17.996;2023-05-07T14:07:05;1.90;;;1.60;;
75552;SDS011;64136;53.118;17.996;2023-05-07T14:09:32;2.70;;;2.00;;
75552;SDS011;64136;53.118;17.996;2023-05-07T14:11:58;1.90;;;1.50;;
75552;SDS011;64136;53.118;17.996;2023-05-07T14:14:24;2.50;;;1.50;;
75552;SDS011;64136;53.118;17.996;2023-05-07T14:16:54;2.10;;;1.50;;
75552;SDS011;64136;53.118;17.996;2023-05-07T14:19:20;1.70;;;1.30;;
75552;SDS011;64136;53.118;17.996;2023-05-07T14:21:48;2.00;;;1.70;;
75552;SDS011;64136;53.118;17.996;2023-05-07T14:24:15;2.10;;;1.70;;
75552;SDS011;64136;53.118;17.996;2023-05-07T14:26:41;1.40;;;1.20;;
75552;SDS011;64136;53.118;17.996;2023-05-07T14:29:07;1.40;;;1.30;;
75552;SDS011;64136;53.118;17.996;2023-05-07T14:31:33;3.50;;;1.20;;
75552;SDS011;64136;53.118;17.996;2023-05-07T14:33:59;1.90;;;1.70;;
75552;SDS011;64136;53.118;17.996;2023-05-07T14:36:26;1.50;;;1.40;;
75552;SDS011;64136;53.118;17.996;2023-05-07T14:38:52;2.20;;;1.70;;
75552;SDS011;64136;53.118;17.996;2023-05-07T14:41:21;2.10;;;1.60;;
75552;SDS011;64136;53.118;17.996;2023-05-07T14:43:47;1.90;;;1.70;;
75552;SDS011;64136;53.118;17.996;2023-05-07T14:46:18;2.60;;;1.90;;
75552;SDS011;64136;53.118;17.996;2023-05-07T14:48:45;2.30;;;2.10;;
75552;SDS011;64136;53.118;17.996;2023-05-07T14:51:12;2.20;;;1.30;;
75552;SDS011;64136;53.118;17.996;2023-05-07T14:53:40;3.30;;;1.70;;
75552;SDS011;64136;53.118;17.996;2023-05-07T14:56:07;1.60;;;1.50;;
75552;SDS011;64136;53.118;17.996;2023-05-07T15:01:00;1.40;;;1.20;;
75552;SDS011;64136;53.118;17.996;2023-05-07T15:03:27;1.90;;;1.40;;
75552;SDS011;64136;53.118;17.996;2023-05-07T15:05:54;2.20;;;1.70;;
75552;SDS011;64136;53.118;17.996;2023-05-07T15:08:20;3.40;;;1.60;;
75552;SDS011;64136;53.118;17.996;2023-05-07T15:10:46;1.90;;;1.70;;
75552;SDS011;64136;53.118;17.996;2023-05-07T15:13:13;1.20;;;1.10;;
75552;SDS011;64136;53.118;17.996;2023-05-07T15:15:39;4.20;;;1.60;;
75552;SDS011;64136;53.118;17.996;2023-05-07T15:18:05;2.80;;;1.50;;
75552;SDS011;64136;53.118;17.996;2023-05-07T15:20:31;2.00;;;1.80;;
75552;SDS011;64136;53.118;17.996;2023-05-07T15:22:58;2.60;;;1.50;;